Terminal Aerodrome Forecast
Issued by NWS Huntsville, AL

Home | Current Version | Previous Version | Text Only | Print | Product List | Glossary On
Versions: 1 2 3 4 5 6 7 8 9 10 11 12 13 14 15 16 17 18 19 20 21 22 23 24 25 26 27 28 29 30
000
FTUS44 KHUN 280520
TAFMSL
TAF
KMSL 280520Z 2806/2906 19005KT P6SM SCT015 BKN150
      TEMPO 2806/2809 BKN025
     FM281400 25010KT P6SM -SHRA SCT015 BKN050
     FM281700 26015G25KT 5SM -SHRA BR OVC040
      TEMPO 2819/2823 3SM -TSRA BR BKN015CB=

USA.gov is the U.S. government's official web portal to all federal, state and local government web resources and services.